Time;durP1;ratioP1;P1;durP2;ratioP2;P2;SDS_P1;SDS_P2;PMS_P1;PMS_P2;Temp;Humidity;BMP_temperature;BMP_pressure;BME280_temperature;BME280_humidity;BME280_pressure;Samples;Min_cycle;Max_cycle;Signal;HPM_P1;HPM_P2
2021/06/14 00:00:13;;;;;;;12.73;4.95;;;16.60;61.40;;;;;;5132678;28;19908;-36
2021/06/14 00:02:40;;;;;;;12.07;5.15;;;16.50;61.70;;;;;;5134113;27;20031;-37
2021/06/14 00:05:11;;;;;;;7.88;4.28;;;16.40;62.30;;;;;;5136240;27;20030;-36
2021/06/14 00:07:36;;;;;;;7.85;3.90;;;16.40;62.40;;;;;;5137941;27;20033;-37
2021/06/14 00:10:06;;;;;;;8.77;5.13;;;16.30;62.70;;;;;;5137638;27;20111;-37
2021/06/14 00:12:32;;;;;;;7.40;4.63;;;16.30;63.40;;;;;;5137453;27;20030;-37
2021/06/14 00:14:58;;;;;;;6.43;4.03;;;16.30;63.40;;;;;;5136594;27;20257;-36
2021/06/14 00:17:23;;;;;;;10.98;4.57;;;16.10;64.00;;;;;;5136184;27;20027;-37
2021/06/14 00:19:49;;;;;;;8.57;4.32;;;16.20;63.90;;;;;;5136232;27;20057;-36
2021/06/14 00:22:17;;;;;;;9.82;5.45;;;16.10;64.30;;;;;;5137522;27;20031;-37
2021/06/14 00:24:42;;;;;;;11.75;5.70;;;16.00;64.50;;;;;;5137144;27;20043;-37
2021/06/14 00:27:09;;;;;;;12.40;6.72;;;16.10;64.60;;;;;;5137537;27;20027;-37
2021/06/14 00:29:34;;;;;;;8.20;4.38;;;16.00;64.90;;;;;;5137122;27;20035;-36
2021/06/14 00:32:00;;;;;;;8.48;4.53;;;15.90;65.30;;;;;;5135706;27;20027;-37
2021/06/14 00:34:26;;;;;;;8.02;4.18;;;15.80;65.60;;;;;;5136975;27;20114;-37
2021/06/14 00:36:51;;;;;;;12.75;4.70;;;15.80;65.60;;;;;;5136997;27;20545;-37
2021/06/14 00:39:17;;;;;;;12.60;6.82;;;15.80;66.10;;;;;;5136881;27;20019;-36
2021/06/14 00:41:43;;;;;;;8.82;4.72;;;15.80;66.00;;;;;;5136910;27;20023;-37
2021/06/14 00:44:09;;;;;;;9.68;4.57;;;15.80;66.10;;;;;;5137132;27;20034;-36
2021/06/14 00:46:35;;;;;;;9.23;4.97;;;15.80;65.80;;;;;;5137141;27;20035;-37
2021/06/14 00:49:01;;;;;;;10.00;5.45;;;15.80;65.80;;;;;;5136757;27;20034;-36
2021/06/14 00:51:27;;;;;;;10.68;4.13;;;15.70;66.10;;;;;;5136963;27;20019;-37
2021/06/14 00:53:55;;;;;;;8.52;4.40;;;15.70;66.30;;;;;;5136628;27;20072;-36
2021/06/14 00:56:22;;;;;;;13.52;3.97;;;15.60;66.50;;;;;;5136687;27;20470;-37
2021/06/14 00:58:48;;;;;;;9.10;4.82;;;15.60;67.00;;;;;;5136646;27;20031;-36
2021/06/14 01:01:14;;;;;;;6.63;4.10;;;15.60;66.90;;;;;;5136363;27;20019;-36
2021/06/14 01:03:39;;;;;;;11.00;5.28;;;15.50;66.80;;;;;;5136496;27;20023;-36
2021/06/14 01:06:07;;;;;;;6.07;3.92;;;15.40;67.10;;;;;;5136268;27;20030;-36
2021/06/14 01:08:36;;;;;;;8.15;4.45;;;15.40;66.90;;;;;;5136305;27;20029;-37
2021/06/14 01:11:25;;;;;;;6.85;4.13;;;15.50;67.00;;;;;;5136587;27;20027;-36
2021/06/14 01:14:11;;;;;;;5.97;4.20;;;15.50;67.10;;;;;;5135349;27;20050;-36
2021/06/14 01:16:51;;;;;;;9.20;4.30;;;15.40;67.20;;;;;;5134179;27;20367;-36
2021/06/14 01:19:36;;;;;;;10.45;4.57;;;15.30;67.70;;;;;;5136114;27;20065;-36
2021/06/14 01:22:11;;;;;;;9.43;4.57;;;15.30;68.10;;;;;;5135927;27;20042;-36
2021/06/14 01:25:03;;;;;;;9.40;4.78;;;15.30;68.20;;;;;;5135866;27;20466;-36
2021/06/14 01:27:35;;;;;;;7.93;4.75;;;15.30;68.10;;;;;;5135910;27;20023;-36
2021/06/14 01:30:04;;;;;;;12.55;5.70;;;15.20;68.00;;;;;;5136091;27;20075;-36
2021/06/14 01:32:30;;;;;;;8.80;4.72;;;15.20;68.70;;;;;;5135952;27;20415;-36
2021/06/14 01:34:56;;;;;;;9.85;5.47;;;15.10;69.10;;;;;;5134647;27;20159;-36
2021/06/14 01:37:22;;;;;;;8.35;4.80;;;15.10;68.90;;;;;;5135971;27;20022;-36
2021/06/14 01:39:48;;;;;;;5.93;4.60;;;15.10;68.80;;;;;;5135844;27;20595;-36
2021/06/14 01:42:16;;;;;;;8.60;4.78;;;15.00;68.70;;;;;;5135783;27;20072;-36
2021/06/14 01:44:46;;;;;;;12.00;3.90;;;15.10;68.30;;;;;;5135720;27;20027;-36
2021/06/14 01:47:13;;;;;;;8.15;4.05;;;15.20;68.10;;;;;;5134492;27;20432;-36
2021/06/14 01:49:40;;;;;;;8.35;4.72;;;15.10;67.80;;;;;;5135654;27;20027;-36
2021/06/14 01:52:06;;;;;;;10.45;4.60;;;15.10;67.90;;;;;;5135427;27;20019;-36
2021/06/14 01:54:32;;;;;;;8.50;4.32;;;15.10;67.90;;;;;;5135764;27;20106;-37
2021/06/14 01:57:00;;;;;;;8.00;4.20;;;15.00;67.90;;;;;;5135684;27;20019;-36
2021/06/14 01:59:30;;;;;;;8.90;4.63;;;15.00;68.50;;;;;;5135644;27;20015;-37
2021/06/14 02:01:57;;;;;;;9.07;4.35;;;15.20;67.80;;;;;;5134563;27;20027;-36
2021/06/14 02:04:23;;;;;;;10.18;4.60;;;15.20;67.60;;;;;;5135316;27;20019;-36
2021/06/14 02:06:53;;;;;;;8.85;4.43;;;15.00;68.50;;;;;;5135306;27;20148;-36
2021/06/14 02:09:23;;;;;;;8.70;4.20;;;14.80;69.00;;;;;;5135566;27;20023;-36
2021/06/14 02:12:00;;;;;;;8.73;4.47;;;14.80;69.20;;;;;;5135427;27;20047;-36
2021/06/14 02:14:32;;;;;;;11.63;4.75;;;14.80;69.20;;;;;;5135185;27;20114;-36
2021/06/14 02:17:01;;;;;;;10.27;4.72;;;14.80;69.40;;;;;;5135308;27;20023;-36
2021/06/14 02:19:27;;;;;;;9.20;4.47;;;14.70;69.80;;;;;;5135049;27;20031;-36
2021/06/14 02:21:53;;;;;;;12.07;4.90;;;14.60;69.80;;;;;;5135019;27;20489;-36
2021/06/14 02:24:18;;;;;;;8.88;4.85;;;14.80;69.60;;;;;;5134846;27;20024;-36
2021/06/14 02:26:45;;;;;;;7.88;5.22;;;14.80;69.30;;;;;;5135203;27;20015;-36
2021/06/14 02:29:12;;;;;;;9.50;5.35;;;14.70;69.50;;;;;;5133638;27;20038;-36
2021/06/14 02:31:38;;;;;;;9.20;5.35;;;14.60;69.70;;;;;;5135010;27;20374;-36
2021/06/14 02:34:06;;;;;;;8.75;4.68;;;14.50;69.70;;;;;;5134799;27;20046;-36
2021/06/14 02:36:33;;;;;;;10.00;5.03;;;14.50;69.80;;;;;;5134865;27;20031;-36
2021/06/14 02:39:05;;;;;;;9.18;4.88;;;14.50;69.90;;;;;;5134839;27;20027;-36
2021/06/14 02:41:31;;;;;;;8.68;4.93;;;14.50;69.60;;;;;;5135247;27;20119;-36
2021/06/14 02:43:57;;;;;;;6.10;3.85;;;14.50;69.40;;;;;;5134991;27;20023;-36
2021/06/14 02:46:23;;;;;;;8.15;4.97;;;14.50;69.90;;;;;;5134804;27;20092;-36
2021/06/14 02:48:50;;;;;;;9.25;4.90;;;14.40;70.00;;;;;;5133285;27;20381;-36
2021/06/14 02:51:18;;;;;;;6.80;4.95;;;14.40;69.90;;;;;;5134885;27;20023;-36
2021/06/14 02:53:46;;;;;;;8.90;5.18;;;14.40;69.90;;;;;;5134544;27;20028;-36
2021/06/14 02:56:18;;;;;;;9.45;4.70;;;14.40;69.90;;;;;;5134596;27;20027;-36
2021/06/14 02:58:46;;;;;;;8.73;6.00;;;14.30;70.00;;;;;;5134496;27;20019;-36
2021/06/14 03:01:12;;;;;;;9.98;4.65;;;14.40;70.30;;;;;;5134393;27;20100;-36
2021/06/14 03:03:43;;;;;;;11.32;5.00;;;14.30;70.10;;;;;;5133171;27;20020;-36
2021/06/14 03:06:11;;;;;;;;;;;14.50;69.90;;;;;;5135124;27;20027;-36
2021/06/14 03:08:38;;;;;;;9.75;4.70;;;14.30;69.90;;;;;;5133461;28;20282;-36
2021/06/14 03:11:04;;;;;;;12.63;5.15;;;14.20;70.50;;;;;;5134644;27;20485;-36
2021/06/14 03:13:31;;;;;;;10.55;4.50;;;14.20;70.60;;;;;;5134388;27;20027;-36
2021/06/14 03:15:57;;;;;;;8.65;5.88;;;14.10;70.90;;;;;;5134630;27;20019;-36
2021/06/14 03:18:25;;;;;;;12.85;4.97;;;14.00;71.10;;;;;;5134287;28;20027;-36
2021/06/14 03:20:53;;;;;;;6.65;4.82;;;14.00;71.30;;;;;;5132941;28;20019;-36
2021/06/14 03:23:19;;;;;;;17.15;5.18;;;14.00;71.20;;;;;;5132969;28;20497;-40
2021/06/14 03:25:45;;;;;;;8.18;4.75;;;14.00;71.10;;;;;;5133952;28;20047;-36
2021/06/14 03:28:14;;;;;;;14.13;6.28;;;14.00;71.00;;;;;;5134126;27;20466;-36
2021/06/14 03:30:41;;;;;;;13.02;6.78;;;14.00;71.50;;;;;;5134145;27;20038;-36
2021/06/14 03:33:08;;;;;;;14.55;5.35;;;13.90;71.40;;;;;;5134052;27;20031;-36
2021/06/14 03:35:35;;;;;;;12.40;4.95;;;13.80;71.30;;;;;;5134350;27;20102;-36
2021/06/14 03:38:01;;;;;;;9.85;4.65;;;13.80;71.20;;;;;;5133152;28;20019;-36
2021/06/14 03:40:27;;;;;;;9.45;5.25;;;13.80;71.30;;;;;;5137172;27;20015;-36
2021/06/14 03:43:05;;;;;;;16.83;7.25;;;13.80;71.40;;;;;;5138232;27;20122;-36
2021/06/14 03:45:31;;;;;;;12.05;5.30;;;13.80;71.40;;;;;;5138099;27;20030;-36
2021/06/14 03:47:57;;;;;;;16.95;6.68;;;13.80;71.30;;;;;;5138338;27;20023;-36
2021/06/14 03:50:24;;;;;;;8.25;4.70;;;13.90;71.20;;;;;;5138056;27;20026;-36
2021/06/14 03:52:50;;;;;;;13.75;6.55;;;14.00;70.70;;;;;;5136494;27;20492;-36
2021/06/14 03:55:16;;;;;;;10.38;4.82;;;14.00;70.90;;;;;;5137760;27;20051;-36
2021/06/14 03:57:42;;;;;;;13.20;6.22;;;14.00;71.10;;;;;;5138141;27;20102;-36
2021/06/14 04:00:13;;;;;;;8.90;5.72;;;14.00;70.80;;;;;;5137823;27;20171;-36
2021/06/14 04:02:39;;;;;;;9.00;5.38;;;13.90;71.00;;;;;;5137982;27;20036;-36
2021/06/14 04:05:06;;;;;;;11.80;5.07;;;13.90;71.10;;;;;;5137797;27;20512;-36
2021/06/14 04:07:32;;;;;;;7.97;5.68;;;14.00;71.20;;;;;;5137992;27;20031;-36
2021/06/14 04:10:00;;;;;;;8.38;5.97;;;14.00;71.20;;;;;;5137641;27;20027;-36
2021/06/14 04:12:27;;;;;;;11.15;5.13;;;14.00;71.30;;;;;;5136604;27;20023;-37
2021/06/14 04:14:53;;;;;;;8.48;5.68;;;14.00;71.30;;;;;;5136355;27;20020;-36
2021/06/14 04:17:19;;;;;;;14.70;5.13;;;14.00;71.70;;;;;;5137887;27;20365;-37
2021/06/14 04:19:44;;;;;;;13.13;4.72;;;14.10;71.20;;;;;;5137777;27;20023;-36
2021/06/14 04:22:10;;;;;;;13.88;6.25;;;14.10;71.40;;;;;;5137319;27;20098;-35
2021/06/14 04:24:36;;;;;;;15.35;4.85;;;14.20;71.10;;;;;;5137805;27;20486;-35
2021/06/14 04:27:02;;;;;;;10.13;5.22;;;14.20;71.10;;;;;;5137925;27;20023;-37
2021/06/14 04:29:28;;;;;;;15.85;7.38;;;14.20;70.80;;;;;;5137592;27;20031;-36
2021/06/14 04:31:54;;;;;;;12.50;6.05;;;14.30;70.80;;;;;;5137495;27;20054;-35
2021/06/14 04:34:19;;;;;;;20.38;8.55;;;14.30;70.80;;;;;;5137657;27;20069;-35
2021/06/14 04:36:45;;;;;;;8.88;5.18;;;14.40;70.40;;;;;;5137362;27;20049;-36
2021/06/14 04:39:11;;;;;;;19.80;7.68;;;14.60;69.80;;;;;;5137384;27;20019;-40
2021/06/14 04:41:37;;;;;;;11.93;5.55;;;14.50;70.10;;;;;;5136967;27;20016;-35
2021/06/14 04:44:03;;;;;;;10.23;5.68;;;14.70;69.70;;;;;;5136987;27;20046;-35
2021/06/14 04:46:29;;;;;;;7.07;5.15;;;14.80;69.30;;;;;;5137165;27;20026;-35
2021/06/14 04:48:54;;;;;;;10.50;5.22;;;14.80;69.20;;;;;;5135516;27;20524;-36
2021/06/14 04:51:21;;;;;;;10.77;5.10;;;14.90;68.50;;;;;;5135688;27;20501;-36
2021/06/14 04:53:46;;;;;;;10.77;5.65;;;15.00;68.10;;;;;;5136688;27;20076;-37
2021/06/14 04:56:12;;;;;;;21.50;10.00;;;15.10;68.00;;;;;;5137592;27;20032;-37
2021/06/14 04:58:38;;;;;;;14.55;5.50;;;15.20;68.10;;;;;;5138062;27;20024;-35
2021/06/14 05:01:04;;;;;;;8.90;5.13;;;15.20;67.20;;;;;;5136889;27;20047;-36
2021/06/14 05:03:29;;;;;;;12.63;5.10;;;15.30;67.10;;;;;;5136666;27;20027;-35
2021/06/14 05:05:55;;;;;;;7.13;4.80;;;15.30;66.60;;;;;;5136924;27;20034;-35
2021/06/14 05:08:21;;;;;;;11.25;4.35;;;15.40;66.50;;;;;;5135190;27;20026;-35
2021/06/14 05:10:48;;;;;;;7.30;4.70;;;15.50;66.20;;;;;;5136309;27;20030;-36
2021/06/14 05:13:14;;;;;;;10.15;5.38;;;15.70;65.50;;;;;;5135340;27;20034;-36
2021/06/14 05:15:40;;;;;;;15.90;4.80;;;15.80;64.80;;;;;;5137316;27;20020;-36
2021/06/14 05:18:06;;;;;;;12.57;4.55;;;15.80;64.80;;;;;;5136730;27;20475;-36
2021/06/14 05:20:32;;;;;;;15.60;4.80;;;16.00;64.20;;;;;;5134678;27;20050;-36
2021/06/14 05:22:58;;;;;;;10.65;5.47;;;16.10;63.60;;;;;;5136257;27;20023;-36
2021/06/14 05:25:24;;;;;;;15.25;4.35;;;16.20;63.20;;;;;;5135996;27;20043;-36
2021/06/14 05:27:49;;;;;;;9.10;4.85;;;16.20;63.10;;;;;;5135915;27;20418;-36
2021/06/14 05:30:16;;;;;;;10.13;4.40;;;16.30;63.20;;;;;;5135853;27;20107;-36
2021/06/14 05:32:41;;;;;;;11.18;4.45;;;16.30;63.00;;;;;;5135639;27;20039;-36
2021/06/14 05:35:08;;;;;;;8.43;4.72;;;16.40;62.90;;;;;;5135652;27;20095;-36
2021/06/14 05:37:34;;;;;;;11.32;5.57;;;16.40;63.20;;;;;;5135964;27;20074;-37
2021/06/14 05:40:00;;;;;;;11.38;4.68;;;16.40;63.20;;;;;;5135566;27;20019;-37
2021/06/14 05:42:25;;;;;;;9.95;4.50;;;16.60;62.90;;;;;;5134337;27;20106;-37
2021/06/14 05:44:51;;;;;;;8.40;4.10;;;16.60;62.90;;;;;;5135575;27;20114;-37
2021/06/14 05:47:16;;;;;;;12.30;4.35;;;16.70;62.60;;;;;;5135335;27;20027;-37
2021/06/14 05:49:42;;;;;;;8.63;5.18;;;16.70;62.50;;;;;;5135607;27;20570;-36
2021/06/14 05:52:08;;;;;;;8.90;4.72;;;16.80;61.90;;;;;;5135748;27;20390;-37
2021/06/14 05:54:34;;;;;;;9.35;4.45;;;16.80;62.10;;;;;;5135226;27;20051;-37
2021/06/14 05:56:59;;;;;;;16.20;6.50;;;17.00;62.10;;;;;;5135089;27;20104;-37
2021/06/14 05:59:25;;;;;;;14.25;5.18;;;17.10;61.70;;;;;;5135332;27;20023;-37
2021/06/14 06:01:51;;;;;;;7.18;3.67;;;17.30;61.20;;;;;;5134952;27;20409;-37
2021/06/14 06:04:18;;;;;;;6.95;4.32;;;17.40;59.90;;;;;;5135208;27;20015;-36
2021/06/14 06:06:43;;;;;;;9.68;4.65;;;17.40;59.60;;;;;;5135485;27;20024;-40
2021/06/14 06:09:09;;;;;;;23.55;5.68;;;17.60;59.20;;;;;;5133918;27;20027;-37
2021/06/14 06:11:36;;;;;;;10.60;3.83;;;17.80;58.90;;;;;;5134811;27;20026;-37
2021/06/14 06:14:01;;;;;;;12.65;5.72;;;17.90;58.20;;;;;;5135109;27;20023;-37
2021/06/14 06:16:27;;;;;;;11.48;5.07;;;18.10;58.40;;;;;;5133527;27;20060;-37
2021/06/14 06:18:52;;;;;;;6.63;4.03;;;18.10;58.00;;;;;;5134772;27;20023;-37
2021/06/14 06:21:18;;;;;;;7.18;3.55;;;18.20;57.50;;;;;;5135238;27;20023;-37
2021/06/14 06:23:44;;;;;;;11.05;4.55;;;18.20;57.60;;;;;;5135449;27;20431;-38
2021/06/14 06:26:09;;;;;;;9.15;3.95;;;18.60;56.30;;;;;;5134933;27;20521;-36
2021/06/14 06:28:35;;;;;;;13.23;4.00;;;18.70;55.30;;;;;;5135564;27;20491;-36
2021/06/14 06:31:01;;;;;;;12.30;5.45;;;18.60;56.00;;;;;;5134700;27;20023;-36
2021/06/14 06:33:27;;;;;;;10.48;4.57;;;18.80;55.20;;;;;;5134685;27;20038;-36
2021/06/14 06:35:55;;;;;;;8.02;3.20;;;19.10;53.60;;;;;;5134347;27;20046;-37
2021/06/14 06:38:21;;;;;;;10.45;3.53;;;19.30;53.00;;;;;;5133607;27;20020;-37
2021/06/14 06:40:46;;;;;;;11.20;5.03;;;19.50;53.00;;;;;;5135035;27;20470;-36
2021/06/14 06:43:12;;;;;;;24.33;4.93;;;19.60;52.00;;;;;;5134717;27;20120;-37
2021/06/14 06:45:38;;;;;;;12.18;3.85;;;19.60;52.90;;;;;;5134863;27;20024;-38
2021/06/14 06:48:04;;;;;;;14.80;3.75;;;19.40;53.00;;;;;;5134525;27;20030;-37
2021/06/14 06:50:30;;;;;;;16.63;3.70;;;19.60;53.00;;;;;;5134218;27;20020;-36
2021/06/14 06:52:55;;;;;;;9.25;4.10;;;19.80;52.60;;;;;;5134525;27;20031;-36
2021/06/14 06:55:22;;;;;;;9.60;3.40;;;19.80;52.70;;;;;;5134220;27;20394;-37
2021/06/14 06:57:48;;;;;;;19.08;4.35;;;19.80;52.40;;;;;;5134343;27;20454;-37
2021/06/14 07:00:23;;;;;;;15.18;4.55;;;20.10;51.60;;;;;;5135417;27;20019;-37
2021/06/14 07:02:52;;;;;;;6.38;3.35;;;20.30;51.60;;;;;;5135119;27;20034;-38
2021/06/14 07:05:17;;;;;;;8.93;3.53;;;20.30;51.30;;;;;;5133733;27;20050;-36
2021/06/14 07:07:43;;;;;;;12.00;3.63;;;20.30;50.70;;;;;;5134929;28;20027;-38
2021/06/14 07:10:13;;;;;;;15.73;3.50;;;20.30;51.30;;;;;;5136195;27;20033;-38
2021/06/14 07:12:39;;;;;;;10.77;3.65;;;20.40;51.40;;;;;;5135229;27;20106;-38
2021/06/14 07:15:10;;;;;;;7.03;2.70;;;20.70;50.50;;;;;;5136773;27;20445;-37
2021/06/14 07:17:39;;;;;;;12.75;3.67;;;21.10;50.00;;;;;;5138786;27;20019;-35
2021/06/14 07:20:09;;;;;;;10.95;3.20;;;21.10;48.50;;;;;;5138217;27;20409;-35
2021/06/14 07:22:35;;;;;;;8.95;4.07;;;21.30;48.20;;;;;;5138059;27;20019;-36
2021/06/14 07:25:01;;;;;;;7.65;3.30;;;22.00;46.80;;;;;;5137893;27;20058;-36
2021/06/14 07:27:27;;;;;;;11.00;3.47;;;22.80;43.90;;;;;;5138547;27;20424;-37
2021/06/14 07:29:52;;;;;;;4.97;2.35;;;23.00;42.50;;;;;;5138799;27;20020;-38
2021/06/14 07:32:18;;;;;;;9.18;3.20;;;22.20;43.70;;;;;;5136689;27;20035;-37
2021/06/14 07:34:44;;;;;;;8.70;3.00;;;22.30;44.00;;;;;;5137670;27;20037;-37
2021/06/14 07:37:09;;;;;;;8.23;2.80;;;22.80;43.00;;;;;;5138026;27;20025;-38
2021/06/14 07:39:36;;;;;;;6.68;2.40;;;23.80;41.20;;;;;;5138511;27;20023;-36
2021/06/14 07:42:03;;;;;;;8.43;3.90;;;23.60;41.30;;;;;;5137653;27;20028;-36
2021/06/14 07:44:29;;;;;;;4.07;2.08;;;23.60;41.20;;;;;;5138331;27;20011;-38
2021/06/14 07:46:56;;;;;;;7.43;3.50;;;24.10;40.00;;;;;;5139734;27;20019;-38
2021/06/14 07:49:22;;;;;;;11.00;3.33;;;24.50;39.80;;;;;;5137636;27;20027;-37
2021/06/14 07:51:48;;;;;;;6.97;2.92;;;24.10;39.80;;;;;;5137793;27;20019;-38
2021/06/14 07:54:13;;;;;;;6.93;2.88;;;24.00;40.50;;;;;;5137552;27;20030;-37
2021/06/14 07:56:44;;;;;;;5.88;2.90;;;23.80;39.40;;;;;;5135787;27;20442;-36
2021/06/14 07:59:10;;;;;;;5.47;2.58;;;23.60;39.50;;;;;;5137582;27;20076;-36
2021/06/14 08:01:36;;;;;;;8.75;2.70;;;23.60;40.00;;;;;;5137319;27;20019;-36
2021/06/14 08:04:01;;;;;;;12.75;2.58;;;24.30;38.50;;;;;;5137993;27;20035;-39
2021/06/14 08:06:27;;;;;;;17.10;4.82;;;23.80;39.20;;;;;;5137112;27;20033;-36
2021/06/14 08:08:53;;;;;;;12.88;3.70;;;24.10;39.10;;;;;;5137238;27;20062;-37
2021/06/14 08:11:19;;;;;;;7.75;3.45;;;24.60;38.50;;;;;;5137194;27;20027;-37
2021/06/14 08:13:46;;;;;;;6.97;2.78;;;24.30;39.10;;;;;;5136926;27;20027;-38
2021/06/14 08:16:11;;;;;;;5.60;3.15;;;24.50;37.90;;;;;;5136848;27;20423;-37
2021/06/14 08:26:41;;;;;;;5.35;2.58;;;25.70;35.60;;;;;;5138073;27;20081;-37
2021/06/14 08:29:07;;;;;;;9.05;3.55;;;25.40;35.60;;;;;;5136930;27;20054;-37
2021/06/14 08:31:34;;;;;;;8.13;2.58;;;26.00;35.40;;;;;;5137032;27;20023;-37
2021/06/14 08:34:00;;;;;;;7.20;3.08;;;25.40;35.80;;;;;;5136653;27;20027;-37
2021/06/14 08:36:26;;;;;;;7.93;2.80;;;25.90;34.30;;;;;;5137432;27;20015;-37
2021/06/14 08:38:53;;;;;;;4.50;2.40;;;25.80;35.00;;;;;;5135120;27;20363;-37
2021/06/14 08:41:20;;;;;;;7.25;2.65;;;25.70;34.80;;;;;;5136391;27;20026;-36
2021/06/14 08:43:51;;;;;;;6.82;3.10;;;26.00;34.20;;;;;;5136351;27;20102;-38
2021/06/14 08:46:17;;;;;;;9.00;3.20;;;26.40;33.60;;;;;;5136690;27;20023;-38
2021/06/14 08:48:44;;;;;;;5.53;2.45;;;26.60;33.40;;;;;;5136898;27;20404;-37
2021/06/14 08:51:11;;;;;;;4.68;2.78;;;26.60;33.10;;;;;;5117624;27;20054;-37
2021/06/14 08:53:38;;;;;;;7.75;2.92;;;26.60;33.10;;;;;;5136805;27;20023;-41
2021/06/14 08:56:05;;;;;;;6.22;2.88;;;26.70;32.50;;;;;;5136041;27;20020;-36
2021/06/14 08:58:32;;;;;;;8.88;3.03;;;25.70;35.00;;;;;;5136066;27;20020;-37
2021/06/14 09:01:00;;;;;;;4.75;2.50;;;26.00;34.10;;;;;;5136083;27;20019;-36
2021/06/14 09:03:27;;;;;;;7.97;2.97;;;26.40;33.70;;;;;;5136052;27;20028;-37
2021/06/14 09:05:53;;;;;;;7.05;3.50;;;26.60;34.00;;;;;;5135522;27;20023;-38
2021/06/14 09:08:24;;;;;;;5.18;2.85;;;26.90;33.40;;;;;;5141109;27;20020;-39
2021/06/14 09:10:51;;;;;;;9.73;4.38;;;26.50;34.00;;;;;;5137467;27;20083;-38
2021/06/14 09:13:20;;;;;;;6.57;2.75;;;27.30;33.00;;;;;;5136166;27;20023;-36
2021/06/14 09:16:07;;;;;;;6.63;2.80;;;26.50;33.90;;;;;;5118297;27;20117;-37
2021/06/14 09:18:33;;;;;;;5.40;2.72;;;26.80;33.70;;;;;;5135633;27;20027;-36
2021/06/14 09:21:02;;;;;;;4.75;2.90;;;27.10;33.30;;;;;;5135691;27;20015;-38
2021/06/14 09:23:39;;;;;;;6.10;2.55;;;27.20;33.40;;;;;;5134407;27;20030;-37
2021/06/14 09:26:05;;;;;;;8.00;3.47;;;27.80;32.00;;;;;;5134096;27;20053;-37
2021/06/14 09:28:31;;;;;;;8.00;3.00;;;28.00;32.00;;;;;;5135708;27;20106;-37
2021/06/14 09:30:59;;;;;;;7.90;2.88;;;27.10;33.10;;;;;;5135742;27;20019;-40
2021/06/14 09:33:26;;;;;;;9.10;2.85;;;27.10;33.10;;;;;;5135512;27;20442;-37
2021/06/14 09:36:03;;;;;;;7.43;3.10;;;27.20;32.50;;;;;;5135350;27;20058;-37
2021/06/14 09:38:29;;;;;;;6.70;2.78;;;27.10;33.50;;;;;;5135339;27;20454;-38
2021/06/14 09:40:57;;;;;;;7.80;3.35;;;27.30;33.00;;;;;;5134419;27;20072;-37
2021/06/14 09:43:37;;;;;;;4.00;2.63;;;28.00;32.20;;;;;;5135716;27;20077;-38
2021/06/14 09:46:04;;;;;;;;;;;28.40;31.60;;;;;;5137617;27;20027;-38
2021/06/14 09:48:31;;;;;;;10.77;2.75;;;28.30;31.60;;;;;;5136243;27;19910;-38
2021/06/14 09:51:04;;;;;;;7.93;3.70;;;27.80;32.30;;;;;;5135293;27;20115;-38
2021/06/14 09:53:35;;;;;;;15.30;7.78;;;28.60;30.50;;;;;;5135530;27;20106;-38
2021/06/14 09:56:14;;;;;;;5.97;2.85;;;27.70;32.80;;;;;;5135321;27;20589;-38
2021/06/14 09:58:42;;;;;;;7.30;3.33;;;27.80;31.90;;;;;;5135085;27;20462;-37
2021/06/14 10:01:08;;;;;;;7.82;2.90;;;27.80;31.00;;;;;;5135081;27;20023;-38
2021/06/14 10:03:42;;;;;;;7.47;3.38;;;27.30;31.50;;;;;;5135264;27;20030;-38
2021/06/14 10:06:08;;;;;;;10.40;5.70;;;28.90;30.20;;;;;;5137189;27;20023;-37
2021/06/14 10:08:35;;;;;;;5.65;2.92;;;28.70;29.90;;;;;;5133567;27;20110;-37
2021/06/14 10:11:17;;;;;;;3.55;2.85;;;28.50;28.80;;;;;;5135002;27;20498;-37
2021/06/14 10:13:45;;;;;;;4.75;2.58;;;28.50;29.60;;;;;;5134883;27;20110;-38
2021/06/14 10:16:29;;;;;;;6.70;2.75;;;28.40;29.10;;;;;;5133296;27;20023;-37
2021/06/14 10:19:00;;;;;;;4.32;2.08;;;28.40;28.50;;;;;;5135087;27;20015;-36
2021/06/14 10:21:38;;;;;;;6.15;3.33;;;28.50;28.60;;;;;;5134388;27;20094;-36
2021/06/14 10:24:10;;;;;;;4.88;2.72;;;28.00;28.60;;;;;;5134817;27;20048;-37
2021/06/14 10:26:39;;;;;;;6.50;2.55;;;28.30;29.10;;;;;;5134207;27;20035;-37
2021/06/14 10:29:06;;;;;;;7.82;3.22;;;28.40;29.20;;;;;;5134439;27;20020;-38
2021/06/14 10:31:34;;;;;;;6.03;2.30;;;28.60;29.40;;;;;;5132747;27;20027;-39
2021/06/14 10:34:02;;;;;;;6.75;2.70;;;28.00;30.10;;;;;;5134153;27;20035;-36
2021/06/14 10:36:29;;;;;;;4.45;2.35;;;28.20;29.50;;;;;;5134535;27;20024;-36
2021/06/14 10:38:56;;;;;;;6.53;3.35;;;28.10;28.70;;;;;;5134679;27;20023;-37
2021/06/14 10:41:24;;;;;;;5.47;2.67;;;28.30;28.60;;;;;;5134344;27;20062;-37
2021/06/14 10:43:51;;;;;;;7.78;2.80;;;28.90;27.10;;;;;;5132856;27;20482;-37
2021/06/14 10:46:20;;;;;;;4.32;2.88;;;28.10;28.10;;;;;;5132915;27;20027;-38
2021/06/14 10:48:47;;;;;;;6.70;2.80;;;28.70;27.10;;;;;;5135004;27;20027;-38
2021/06/14 10:51:16;;;;;;;6.88;2.65;;;28.70;28.00;;;;;;5134075;27;20412;-37
2021/06/14 10:53:42;;;;;;;7.95;3.72;;;28.60;29.00;;;;;;5134029;27;20378;-37
2021/06/14 10:56:13;;;;;;;6.97;3.22;;;28.70;29.20;;;;;;5134069;27;20026;-37
2021/06/14 10:58:42;;;;;;;5.53;3.10;;;28.50;30.00;;;;;;5134277;27;20016;-37
2021/06/14 11:01:15;;;;;;;8.23;2.72;;;29.00;28.20;;;;;;5133331;27;20023;-37
2021/06/14 11:03:45;;;;;;;4.57;2.50;;;30.00;27.30;;;;;;5134513;27;20390;-37
2021/06/14 11:06:15;;;;;;;4.78;2.80;;;29.20;26.30;;;;;;5135120;27;20030;-44
2021/06/14 11:08:41;;;;;;;5.18;2.55;;;29.20;26.90;;;;;;5134783;27;20487;-38
2021/06/14 11:11:07;;;;;;;5.85;2.67;;;29.30;27.40;;;;;;5132807;28;20076;-38
2021/06/14 11:13:34;;;;;;;6.13;2.60;;;29.20;27.80;;;;;;5136277;27;20444;-37
2021/06/14 11:16:02;;;;;;;6.03;2.33;;;28.70;28.10;;;;;;5135141;27;20042;-38
2021/06/14 11:18:31;;;;;;;5.90;2.72;;;29.30;27.50;;;;;;5116880;28;20023;-39
2021/06/14 11:21:09;;;;;;;8.75;2.45;;;29.10;27.80;;;;;;5133065;28;20428;-38
2021/06/14 11:23:39;;;;;;;7.32;3.13;;;28.80;27.80;;;;;;5132313;28;20047;-38
2021/06/14 11:26:08;;;;;;;5.65;2.35;;;29.80;27.10;;;;;;5134228;27;20074;-36
2021/06/14 11:28:40;;;;;;;5.35;2.47;;;28.90;28.10;;;;;;5132466;28;20339;-38
2021/06/14 11:31:14;;;;;;;5.57;2.15;;;28.50;27.60;;;;;;5134079;27;20023;-37
2021/06/14 11:33:40;;;;;;;5.13;2.70;;;29.20;26.60;;;;;;5134251;28;20088;-39
2021/06/14 11:36:52;;;;;;;11.32;2.58;;;29.80;26.10;;;;;;5134258;27;20021;-38
2021/06/14 11:39:20;;;;;;;5.70;2.88;;;30.30;25.00;;;;;;5070910;28;20024;-38
2021/06/14 11:41:46;;;;;;;3.83;2.30;;;29.90;25.50;;;;;;5119261;28;20038;-38
2021/06/14 11:44:21;;;;;;;2.88;2.08;;;29.90;26.10;;;;;;5133539;28;20023;-37
2021/06/14 11:46:48;;;;;;;6.55;2.30;;;29.70;26.30;;;;;;5134212;27;20023;-38
2021/06/14 11:49:14;;;;;;;7.07;2.80;;;30.20;25.80;;;;;;5133912;27;20033;-37
2021/06/14 11:51:41;;;;;;;7.43;3.75;;;31.60;23.90;;;;;;5134296;27;20358;-39
2021/06/14 11:54:08;;;;;;;5.18;2.50;;;31.50;23.40;;;;;;5134138;27;20055;-37
2021/06/14 11:56:38;;;;;;;8.57;2.20;;;31.30;23.70;;;;;;5133659;27;20023;-38
2021/06/14 11:59:08;;;;;;;5.50;2.08;;;31.10;23.80;;;;;;5132241;28;20020;-38
2021/06/14 12:01:36;;;;;;;6.95;2.25;;;30.50;24.80;;;;;;5135005;27;20027;-38
2021/06/14 12:04:06;;;;;;;3.70;2.33;;;30.30;25.00;;;;;;5135969;27;20028;-37
2021/06/14 12:06:47;;;;;;;4.50;2.47;;;31.30;24.80;;;;;;5137542;27;20031;-37
2021/06/14 12:09:21;;;;;;;7.80;3.63;;;31.30;24.90;;;;;;5102295;27;20026;-37
2021/06/14 12:11:56;;;;;;;10.18;3.75;;;29.60;26.50;;;;;;5137778;27;20019;-38
2021/06/14 12:14:21;;;;;;;3.92;2.60;;;30.50;25.70;;;;;;5138288;27;20031;-38
2021/06/14 12:17:05;;;;;;;5.53;2.97;;;30.20;25.40;;;;;;5137811;27;20500;-37
2021/06/14 12:19:35;;;;;;;3.80;2.53;;;31.70;24.40;;;;;;5138148;27;20518;-39
2021/06/14 12:22:05;;;;;;;7.43;4.18;;;32.10;24.40;;;;;;5136868;27;20019;-37
2021/06/14 12:24:36;;;;;;;10.18;2.67;;;32.40;23.90;;;;;;5137369;27;20039;-39
2021/06/14 12:27:07;;;;;;;5.25;2.70;;;32.70;24.40;;;;;;5135739;27;20095;-38
2021/06/14 12:29:35;;;;;;;6.47;3.50;;;32.30;23.90;;;;;;5136816;27;20350;-38
2021/06/14 12:32:15;;;;;;;9.77;2.40;;;33.00;23.30;;;;;;5136683;27;20034;-38
2021/06/14 12:36:00;;;;;;;4.45;2.88;;;33.70;22.80;;;;;;5070920;28;20682;-38
2021/06/14 12:38:29;;;;;;;8.02;2.85;;;33.10;22.70;;;;;;5070331;28;20036;-40
2021/06/14 12:41:03;;;;;;;4.43;2.90;;;32.70;23.40;;;;;;5070465;28;20075;-41
2021/06/14 12:43:35;;;;;;;7.57;2.95;;;33.40;23.10;;;;;;5071604;28;20027;-37
2021/06/14 12:46:00;;;;;;;5.28;2.67;;;31.50;23.00;;;;;;5070455;28;20488;-38
2021/06/14 12:48:26;;;;;;;9.43;2.97;;;32.90;22.10;;;;;;5070183;28;20035;-38
2021/06/14 12:50:55;;;;;;;10.43;2.88;;;33.30;22.40;;;;;;5070863;28;20044;-37
2021/06/14 12:53:28;;;;;;;5.57;2.55;;;31.50;24.60;;;;;;5069810;28;20044;-37
2021/06/14 12:55:56;;;;;;;4.78;2.72;;;31.30;25.50;;;;;;5070400;28;20029;-37